sensor_id;sensor_type;location;lat;lon;timestamp;P1;durP1;ratioP1;P2;durP2;ratioP2
4650;SDS011;2338;49.602;8.722;2023-06-10T00:01:02;12.70;;;8.77;;
4650;SDS011;2338;49.602;8.722;2023-06-10T00:03:49;8.93;;;8.03;;
4650;SDS011;2338;49.602;8.722;2023-06-10T00:06:35;10.47;;;7.50;;
4650;SDS011;2338;49.602;8.722;2023-06-10T00:09:21;11.90;;;8.70;;
4650;SDS011;2338;49.602;8.722;2023-06-10T00:12:08;14.00;;;8.90;;
4650;SDS011;2338;49.602;8.722;2023-06-10T00:14:54;9.30;;;7.93;;
4650;SDS011;2338;49.602;8.722;2023-06-10T00:17:39;8.20;;;7.40;;
4650;SDS011;2338;49.602;8.722;2023-06-10T00:20:26;8.87;;;7.93;;
4650;SDS011;2338;49.602;8.722;2023-06-10T00:23:11;8.10;;;7.30;;
4650;SDS011;2338;49.602;8.722;2023-06-10T00:25:57;8.83;;;7.30;;
4650;SDS011;2338;49.602;8.722;2023-06-10T00:28:44;8.20;;;7.13;;
4650;SDS011;2338;49.602;8.722;2023-06-10T00:31:30;12.10;;;7.70;;
4650;SDS011;2338;49.602;8.722;2023-06-10T00:34:16;8.10;;;6.90;;
4650;SDS011;2338;49.602;8.722;2023-06-10T00:37:01;8.70;;;7.70;;
4650;SDS011;2338;49.602;8.722;2023-06-10T00:39:47;9.53;;;7.10;;
4650;SDS011;2338;49.602;8.722;2023-06-10T00:42:32;8.13;;;7.33;;
4650;SDS011;2338;49.602;8.722;2023-06-10T00:45:19;8.30;;;7.50;;
4650;SDS011;2338;49.602;8.722;2023-06-10T00:48:05;8.90;;;8.07;;
4650;SDS011;2338;49.602;8.722;2023-06-10T00:50:50;7.37;;;6.67;;
4650;SDS011;2338;49.602;8.722;2023-06-10T00:53:36;9.47;;;8.30;;
4650;SDS011;2338;49.602;8.722;2023-06-10T00:56:24;11.50;;;8.20;;
4650;SDS011;2338;49.602;8.722;2023-06-10T00:59:10;8.23;;;7.40;;
4650;SDS011;2338;49.602;8.722;2023-06-10T01:01:57;9.50;;;7.80;;
4650;SDS011;2338;49.602;8.722;2023-06-10T01:04:44;8.73;;;7.83;;
4650;SDS011;2338;49.602;8.722;2023-06-10T01:07:33;8.37;;;7.57;;
4650;SDS011;2338;49.602;8.722;2023-06-10T01:10:24;9.93;;;7.50;;
4650;SDS011;2338;49.602;8.722;2023-06-10T01:13:17;10.67;;;8.47;;
4650;SDS011;2338;49.602;8.722;2023-06-10T01:16:06;10.07;;;8.30;;
4650;SDS011;2338;49.602;8.722;2023-06-10T01:18:54;9.87;;;8.63;;
4650;SDS011;2338;49.602;8.722;2023-06-10T01:21:41;9.20;;;8.27;;
4650;SDS011;2338;49.602;8.722;2023-06-10T01:24:32;12.87;;;8.57;;
4650;SDS011;2338;49.602;8.722;2023-06-10T01:27:18;11.70;;;8.00;;
4650;SDS011;2338;49.602;8.722;2023-06-10T01:30:08;8.90;;;7.97;;
4650;SDS011;2338;49.602;8.722;2023-06-10T01:32:59;10.43;;;8.40;;
4650;SDS011;2338;49.602;8.722;2023-06-10T01:35:47;11.53;;;8.50;;
4650;SDS011;2338;49.602;8.722;2023-06-10T01:38:36;10.20;;;8.63;;
4650;SDS011;2338;49.602;8.722;2023-06-10T01:41:25;10.33;;;8.60;;
4650;SDS011;2338;49.602;8.722;2023-06-10T01:44:11;10.10;;;8.47;;
4650;SDS011;2338;49.602;8.722;2023-06-10T01:46:57;10.00;;;8.90;;
4650;SDS011;2338;49.602;8.722;2023-06-10T01:49:42;9.93;;;8.97;;
4650;SDS011;2338;49.602;8.722;2023-06-10T01:52:28;9.50;;;8.60;;
4650;SDS011;2338;49.602;8.722;2023-06-10T01:55:15;9.03;;;8.13;;
4650;SDS011;2338;49.602;8.722;2023-06-10T01:58:00;8.60;;;7.73;;
4650;SDS011;2338;49.602;8.722;2023-06-10T02:00:46;10.80;;;8.50;;
4650;SDS011;2338;49.602;8.722;2023-06-10T02:03:32;9.50;;;7.70;;
4650;SDS011;2338;49.602;8.722;2023-06-10T02:06:17;10.37;;;8.53;;
4650;SDS011;2338;49.602;8.722;2023-06-10T02:09:03;9.37;;;8.37;;
4650;SDS011;2338;49.602;8.722;2023-06-10T02:11:50;12.30;;;8.80;;
4650;SDS011;2338;49.602;8.722;2023-06-10T02:14:36;9.67;;;8.33;;
4650;SDS011;2338;49.602;8.722;2023-06-10T02:17:21;10.30;;;8.43;;
4650;SDS011;2338;49.602;8.722;2023-06-10T02:20:07;13.70;;;8.97;;
4650;SDS011;2338;49.602;8.722;2023-06-10T02:22:54;12.33;;;9.53;;
4650;SDS011;2338;49.602;8.722;2023-06-10T02:25:39;10.03;;;9.03;;
4650;SDS011;2338;49.602;8.722;2023-06-10T02:28:26;10.40;;;9.30;;
4650;SDS011;2338;49.602;8.722;2023-06-10T02:31:12;11.70;;;9.10;;
4650;SDS011;2338;49.602;8.722;2023-06-10T02:33:58;11.37;;;9.10;;
4650;SDS011;2338;49.602;8.722;2023-06-10T02:36:43;9.80;;;8.90;;
4650;SDS011;2338;49.602;8.722;2023-06-10T02:39:29;15.40;;;8.93;;
4650;SDS011;2338;49.602;8.722;2023-06-10T02:42:15;11.43;;;9.27;;
4650;SDS011;2338;49.602;8.722;2023-06-10T02:45:01;9.93;;;8.70;;
4650;SDS011;2338;49.602;8.722;2023-06-10T02:47:47;9.53;;;8.63;;
4650;SDS011;2338;49.602;8.722;2023-06-10T02:50:33;10.40;;;9.40;;
4650;SDS011;2338;49.602;8.722;2023-06-10T02:53:18;10.80;;;8.77;;
4650;SDS011;2338;49.602;8.722;2023-06-10T02:56:04;15.20;;;8.47;;
4650;SDS011;2338;49.602;8.722;2023-06-10T02:58:49;10.20;;;9.10;;
4650;SDS011;2338;49.602;8.722;2023-06-10T03:01:37;9.47;;;7.97;;
4650;SDS011;2338;49.602;8.722;2023-06-10T03:04:22;9.63;;;7.90;;
4650;SDS011;2338;49.602;8.722;2023-06-10T03:07:09;16.80;;;8.83;;
4650;SDS011;2338;49.602;8.722;2023-06-10T03:09:54;9.70;;;8.67;;
4650;SDS011;2338;49.602;8.722;2023-06-10T03:12:40;10.57;;;9.00;;
4650;SDS011;2338;49.602;8.722;2023-06-10T03:15:25;10.40;;;9.40;;
4650;SDS011;2338;49.602;8.722;2023-06-10T03:18:13;9.80;;;8.80;;
4650;SDS011;2338;49.602;8.722;2023-06-10T03:20:59;11.40;;;9.17;;
4650;SDS011;2338;49.602;8.722;2023-06-10T03:23:44;11.97;;;8.90;;
4650;SDS011;2338;49.602;8.722;2023-06-10T03:26:30;11.80;;;9.00;;
4650;SDS011;2338;49.602;8.722;2023-06-10T03:29:15;10.53;;;9.43;;
4650;SDS011;2338;49.602;8.722;2023-06-10T03:32:01;9.17;;;8.30;;
4650;SDS011;2338;49.602;8.722;2023-06-10T03:34:48;15.27;;;8.70;;
4650;SDS011;2338;49.602;8.722;2023-06-10T03:37:34;14.30;;;8.63;;
4650;SDS011;2338;49.602;8.722;2023-06-10T03:40:20;12.13;;;9.40;;
4650;SDS011;2338;49.602;8.722;2023-06-10T03:43:05;12.20;;;9.87;;
4650;SDS011;2338;49.602;8.722;2023-06-10T03:45:51;12.83;;;8.80;;
4650;SDS011;2338;49.602;8.722;2023-06-10T03:48:37;10.03;;;8.43;;
4650;SDS011;2338;49.602;8.722;2023-06-10T03:51:24;13.33;;;9.90;;
4650;SDS011;2338;49.602;8.722;2023-06-10T03:54:10;17.00;;;8.67;;
4650;SDS011;2338;49.602;8.722;2023-06-10T03:56:55;8.83;;;8.00;;
4650;SDS011;2338;49.602;8.722;2023-06-10T03:59:41;10.40;;;9.40;;
4650;SDS011;2338;49.602;8.722;2023-06-10T04:02:26;11.47;;;9.00;;
4650;SDS011;2338;49.602;8.722;2023-06-10T04:05:12;10.40;;;8.73;;
4650;SDS011;2338;49.602;8.722;2023-06-10T04:07:59;19.73;;;8.47;;
4650;SDS011;2338;49.602;8.722;2023-06-10T04:10:44;12.30;;;8.97;;
4650;SDS011;2338;49.602;8.722;2023-06-10T04:13:30;10.60;;;8.43;;
4650;SDS011;2338;49.602;8.722;2023-06-10T04:16:16;11.00;;;8.57;;
4650;SDS011;2338;49.602;8.722;2023-06-10T04:19:01;10.30;;;9.13;;
4650;SDS011;2338;49.602;8.722;2023-06-10T04:21:47;8.93;;;8.03;;
4650;SDS011;2338;49.602;8.722;2023-06-10T04:24:34;10.93;;;8.90;;
4650;SDS011;2338;49.602;8.722;2023-06-10T04:27:19;27.90;;;9.10;;
4650;SDS011;2338;49.602;8.722;2023-06-10T04:30:06;14.47;;;8.93;;
4650;SDS011;2338;49.602;8.722;2023-06-10T04:32:52;13.00;;;9.30;;
4650;SDS011;2338;49.602;8.722;2023-06-10T04:35:38;14.90;;;8.63;;
4650;SDS011;2338;49.602;8.722;2023-06-10T04:38:24;17.13;;;8.90;;
4650;SDS011;2338;49.602;8.722;2023-06-10T04:41:11;12.67;;;8.60;;
4650;SDS011;2338;49.602;8.722;2023-06-10T04:43:57;12.60;;;9.67;;
4650;SDS011;2338;49.602;8.722;2023-06-10T04:46:43;11.90;;;9.20;;
4650;SDS011;2338;49.602;8.722;2023-06-10T04:49:28;9.90;;;8.97;;
4650;SDS011;2338;49.602;8.722;2023-06-10T04:52:14;10.53;;;9.50;;
4650;SDS011;2338;49.602;8.722;2023-06-10T04:55:00;10.17;;;8.87;;
4650;SDS011;2338;49.602;8.722;2023-06-10T04:57:47;11.63;;;8.70;;
4650;SDS011;2338;49.602;8.722;2023-06-10T05:00:34;10.57;;;8.33;;
4650;SDS011;2338;49.602;8.722;2023-06-10T05:03:19;10.17;;;9.10;;
4650;SDS011;2338;49.602;8.722;2023-06-10T05:06:05;9.50;;;8.50;;
4650;SDS011;2338;49.602;8.722;2023-06-10T05:08:50;11.00;;;8.63;;
4650;SDS011;2338;49.602;8.722;2023-06-10T05:11:36;11.53;;;8.37;;
4650;SDS011;2338;49.602;8.722;2023-06-10T05:14:23;9.40;;;8.50;;
4650;SDS011;2338;49.602;8.722;2023-06-10T05:17:08;9.70;;;8.60;;
4650;SDS011;2338;49.602;8.722;2023-06-10T05:19:54;11.87;;;9.27;;
4650;SDS011;2338;49.602;8.722;2023-06-10T05:22:39;12.67;;;8.00;;
4650;SDS011;2338;49.602;8.722;2023-06-10T05:25:25;9.50;;;8.50;;
4650;SDS011;2338;49.602;8.722;2023-06-10T05:28:11;10.30;;;8.90;;
4650;SDS011;2338;49.602;8.722;2023-06-10T05:30:58;10.00;;;8.93;;
4650;SDS011;2338;49.602;8.722;2023-06-10T05:33:43;10.97;;;8.83;;
4650;SDS011;2338;49.602;8.722;2023-06-10T05:36:29;8.30;;;7.47;;
4650;SDS011;2338;49.602;8.722;2023-06-10T05:39:15;11.13;;;8.30;;
4650;SDS011;2338;49.602;8.722;2023-06-10T05:42:00;8.23;;;7.43;;
4650;SDS011;2338;49.602;8.722;2023-06-10T05:44:46;10.57;;;8.00;;
4650;SDS011;2338;49.602;8.722;2023-06-10T05:47:33;11.10;;;7.70;;
4650;SDS011;2338;49.602;8.722;2023-06-10T05:50:19;8.07;;;6.53;;
4650;SDS011;2338;49.602;8.722;2023-06-10T05:53:04;10.00;;;7.33;;
4650;SDS011;2338;49.602;8.722;2023-06-10T05:55:52;8.13;;;6.70;;
4650;SDS011;2338;49.602;8.722;2023-06-10T05:58:40;7.27;;;6.47;;
4650;SDS011;2338;49.602;8.722;2023-06-10T06:01:26;10.67;;;7.30;;
4650;SDS011;2338;49.602;8.722;2023-06-10T06:04:13;10.40;;;7.47;;
4650;SDS011;2338;49.602;8.722;2023-06-10T06:06:58;10.13;;;6.70;;
4650;SDS011;2338;49.602;8.722;2023-06-10T06:09:44;10.50;;;5.77;;
4650;SDS011;2338;49.602;8.722;2023-06-10T06:12:30;6.47;;;5.70;;
4650;SDS011;2338;49.602;8.722;2023-06-10T06:15:15;6.80;;;5.43;;
4650;SDS011;2338;49.602;8.722;2023-06-10T06:18:01;6.90;;;6.10;;
4650;SDS011;2338;49.602;8.722;2023-06-10T06:20:47;7.10;;;5.90;;
4650;SDS011;2338;49.602;8.722;2023-06-10T06:23:34;7.70;;;5.93;;
4650;SDS011;2338;49.602;8.722;2023-06-10T06:26:20;9.33;;;7.27;;
4650;SDS011;2338;49.602;8.722;2023-06-10T06:29:06;10.27;;;7.43;;
4650;SDS011;2338;49.602;8.722;2023-06-10T06:31:51;6.07;;;5.30;;
4650;SDS011;2338;49.602;8.722;2023-06-10T06:34:37;16.50;;;6.57;;
4650;SDS011;2338;49.602;8.722;2023-06-10T06:37:24;5.93;;;5.33;;
4650;SDS011;2338;49.602;8.722;2023-06-10T06:40:10;8.20;;;5.90;;
4650;SDS011;2338;49.602;8.722;2023-06-10T06:42:56;8.30;;;6.30;;
4650;SDS011;2338;49.602;8.722;2023-06-10T06:45:42;8.10;;;6.07;;
4650;SDS011;2338;49.602;8.722;2023-06-10T06:48:27;7.17;;;6.57;;
4650;SDS011;2338;49.602;8.722;2023-06-10T06:51:13;8.53;;;6.20;;
4650;SDS011;2338;49.602;8.722;2023-06-10T06:54:00;8.47;;;6.10;;
4650;SDS011;2338;49.602;8.722;2023-06-10T06:56:45;8.97;;;6.80;;
4650;SDS011;2338;49.602;8.722;2023-06-10T06:59:31;8.13;;;6.37;;
4650;SDS011;2338;49.602;8.722;2023-06-10T07:02:16;11.00;;;9.20;;
4650;SDS011;2338;49.602;8.722;2023-06-10T07:05:02;8.80;;;7.40;;
4650;SDS011;2338;49.602;8.722;2023-06-10T07:07:48;11.63;;;6.90;;
4650;SDS011;2338;49.602;8.722;2023-06-10T07:10:39;7.40;;;6.70;;
4650;SDS011;2338;49.602;8.722;2023-06-10T07:13:25;6.43;;;5.73;;
4650;SDS011;2338;49.602;8.722;2023-06-10T07:16:10;8.07;;;5.93;;
4650;SDS011;2338;49.602;8.722;2023-06-10T07:18:56;10.57;;;6.70;;
4650;SDS011;2338;49.602;8.722;2023-06-10T07:21:42;7.27;;;6.57;;
4650;SDS011;2338;49.602;8.722;2023-06-10T07:24:27;6.43;;;5.80;;
4650;SDS011;2338;49.602;8.722;2023-06-10T07:27:14;9.10;;;6.13;;
4650;SDS011;2338;49.602;8.722;2023-06-10T07:29:59;7.10;;;6.03;;
4650;SDS011;2338;49.602;8.722;2023-06-10T07:32:45;12.00;;;6.10;;
4650;SDS011;2338;49.602;8.722;2023-06-10T07:35:31;7.83;;;6.60;;
4650;SDS011;2338;49.602;8.722;2023-06-10T07:38:17;6.40;;;5.40;;
4650;SDS011;2338;49.602;8.722;2023-06-10T07:41:02;8.70;;;6.50;;
4650;SDS011;2338;49.602;8.722;2023-06-10T07:43:49;9.23;;;6.23;;
4650;SDS011;2338;49.602;8.722;2023-06-10T07:46:38;9.60;;;5.57;;
4650;SDS011;2338;49.602;8.722;2023-06-10T07:49:23;7.10;;;6.10;;
4650;SDS011;2338;49.602;8.722;2023-06-10T07:52:09;7.33;;;6.57;;
4650;SDS011;2338;49.602;8.722;2023-06-10T07:54:55;7.20;;;6.03;;
4650;SDS011;2338;49.602;8.722;2023-06-10T07:57:40;6.90;;;6.07;;
4650;SDS011;2338;49.602;8.722;2023-06-10T08:00:27;7.20;;;6.23;;
4650;SDS011;2338;49.602;8.722;2023-06-10T08:03:13;8.33;;;6.00;;
4650;SDS011;2338;49.602;8.722;2023-06-10T08:05:58;9.00;;;7.00;;
4650;SDS011;2338;49.602;8.722;2023-06-10T08:08:44;6.00;;;5.40;;
4650;SDS011;2338;49.602;8.722;2023-06-10T08:11:29;9.73;;;5.87;;
4650;SDS011;2338;49.602;8.722;2023-06-10T08:14:15;9.03;;;6.87;;
4650;SDS011;2338;49.602;8.722;2023-06-10T08:17:02;7.87;;;6.50;;
4650;SDS011;2338;49.602;8.722;2023-06-10T08:19:49;7.13;;;5.70;;
4650;SDS011;2338;49.602;8.722;2023-06-10T08:22:35;7.07;;;6.37;;
4650;SDS011;2338;49.602;8.722;2023-06-10T08:25:20;8.10;;;6.57;;
4650;SDS011;2338;49.602;8.722;2023-06-10T08:28:06;6.83;;;6.13;;
4650;SDS011;2338;49.602;8.722;2023-06-10T08:30:51;7.43;;;5.97;;
4650;SDS011;2338;49.602;8.722;2023-06-10T08:33:38;10.97;;;6.13;;
4650;SDS011;2338;49.602;8.722;2023-06-10T08:36:26;7.83;;;6.40;;
4650;SDS011;2338;49.602;8.722;2023-06-10T08:39:11;6.03;;;5.43;;
4650;SDS011;2338;49.602;8.722;2023-06-10T08:42:00;7.57;;;5.90;;
4650;SDS011;2338;49.602;8.722;2023-06-10T08:44:55;10.70;;;5.80;;
4650;SDS011;2338;49.602;8.722;2023-06-10T08:47:42;6.80;;;6.10;;
4650;SDS011;2338;49.602;8.722;2023-06-10T08:50:31;7.53;;;6.37;;
4650;SDS011;2338;49.602;8.722;2023-06-10T08:53:18;19.60;;;6.60;;
4650;SDS011;2338;49.602;8.722;2023-06-10T08:56:04;7.90;;;6.27;;
4650;SDS011;2338;49.602;8.722;2023-06-10T08:58:50;8.70;;;6.90;;
4650;SDS011;2338;49.602;8.722;2023-06-10T09:01:36;13.93;;;7.43;;
4650;SDS011;2338;49.602;8.722;2023-06-10T09:04:23;8.83;;;6.37;;
4650;SDS011;2338;49.602;8.722;2023-06-10T09:07:10;11.80;;;7.00;;
4650;SDS011;2338;49.602;8.722;2023-06-10T09:09:58;9.00;;;6.23;;
4650;SDS011;2338;49.602;8.722;2023-06-10T09:12:46;9.83;;;6.23;;
4650;SDS011;2338;49.602;8.722;2023-06-10T09:15:32;6.70;;;6.00;;
4650;SDS011;2338;49.602;8.722;2023-06-10T09:18:17;7.00;;;6.30;;
4650;SDS011;2338;49.602;8.722;2023-06-10T09:21:03;10.80;;;6.43;;
4650;SDS011;2338;49.602;8.722;2023-06-10T09:23:50;14.13;;;6.50;;
4650;SDS011;2338;49.602;8.722;2023-06-10T09:26:36;9.17;;;7.07;;
4650;SDS011;2338;49.602;8.722;2023-06-10T09:29:22;10.93;;;6.10;;
4650;SDS011;2338;49.602;8.722;2023-06-10T09:32:07;8.43;;;6.30;;
4650;SDS011;2338;49.602;8.722;2023-06-10T09:34:53;12.73;;;6.60;;
4650;SDS011;2338;49.602;8.722;2023-06-10T09:37:38;8.00;;;7.10;;
4650;SDS011;2338;49.602;8.722;2023-06-10T09:40:25;7.10;;;5.77;;
4650;SDS011;2338;49.602;8.722;2023-06-10T09:43:11;8.30;;;6.70;;
4650;SDS011;2338;49.602;8.722;2023-06-10T09:45:56;7.43;;;6.20;;
4650;SDS011;2338;49.602;8.722;2023-06-10T09:48:44;7.70;;;5.83;;
4650;SDS011;2338;49.602;8.722;2023-06-10T09:51:31;8.17;;;5.70;;
4650;SDS011;2338;49.602;8.722;2023-06-10T09:54:17;7.37;;;5.20;;
4650;SDS011;2338;49.602;8.722;2023-06-10T09:57:07;6.63;;;4.63;;
4650;SDS011;2338;49.602;8.722;2023-06-10T09:59:53;5.90;;;5.30;;
4650;SDS011;2338;49.602;8.722;2023-06-10T10:02:44;5.80;;;5.20;;
4650;SDS011;2338;49.602;8.722;2023-06-10T10:05:31;8.83;;;4.73;;
4650;SDS011;2338;49.602;8.722;2023-06-10T10:08:16;8.10;;;6.20;;
4650;SDS011;2338;49.602;8.722;2023-06-10T10:11:02;6.73;;;5.30;;
4650;SDS011;2338;49.602;8.722;2023-06-10T10:13:50;9.83;;;5.27;;
4650;SDS011;2338;49.602;8.722;2023-06-10T10:16:36;7.57;;;5.27;;
4650;SDS011;2338;49.602;8.722;2023-06-10T10:19:25;8.43;;;5.30;;
4650;SDS011;2338;49.602;8.722;2023-06-10T10:22:15;6.60;;;5.07;;
4650;SDS011;2338;49.602;8.722;2023-06-10T10:25:05;9.17;;;5.60;;
4650;SDS011;2338;49.602;8.722;2023-06-10T10:27:56;5.57;;;4.83;;
4650;SDS011;2338;49.602;8.722;2023-06-10T10:30:46;6.40;;;5.50;;
4650;SDS011;2338;49.602;8.722;2023-06-10T10:33:36;6.40;;;5.10;;
4650;SDS011;2338;49.602;8.722;2023-06-10T10:36:30;6.63;;;5.63;;
4650;SDS011;2338;49.602;8.722;2023-06-10T10:39:16;6.63;;;5.50;;
4650;SDS011;2338;49.602;8.722;2023-06-10T10:42:02;6.17;;;5.57;;
4650;SDS011;2338;49.602;8.722;2023-06-10T10:44:52;7.00;;;5.73;;
4650;SDS011;2338;49.602;8.722;2023-06-10T10:47:40;6.20;;;5.37;;
4650;SDS011;2338;49.602;8.722;2023-06-10T10:50:28;9.13;;;5.83;;
4650;SDS011;2338;49.602;8.722;2023-06-10T10:53:14;6.10;;;5.50;;
4650;SDS011;2338;49.602;8.722;2023-06-10T10:56:05;7.43;;;5.37;;
4650;SDS011;2338;49.602;8.722;2023-06-10T10:59:01;8.57;;;4.57;;
4650;SDS011;2338;49.602;8.722;2023-06-10T11:01:48;7.80;;;4.50;;
4650;SDS011;2338;49.602;8.722;2023-06-10T11:04:36;7.90;;;4.90;;
4650;SDS011;2338;49.602;8.722;2023-06-10T11:07:21;7.70;;;4.63;;
4650;SDS011;2338;49.602;8.722;2023-06-10T11:10:10;6.80;;;5.00;;
4650;SDS011;2338;49.602;8.722;2023-06-10T11:12:57;10.53;;;4.90;;
4650;SDS011;2338;49.602;8.722;2023-06-10T11:15:43;4.93;;;4.40;;
4650;SDS011;2338;49.602;8.722;2023-06-10T11:18:30;6.17;;;4.33;;
4650;SDS011;2338;49.602;8.722;2023-06-10T11:21:24;4.93;;;4.43;;
4650;SDS011;2338;49.602;8.722;2023-06-10T11:24:13;7.00;;;4.60;;
4650;SDS011;2338;49.602;8.722;2023-06-10T11:27:15;4.97;;;4.47;;
4650;SDS011;2338;49.602;8.722;2023-06-10T11:30:17;6.60;;;5.50;;
4650;SDS011;2338;49.602;8.722;2023-06-10T11:33:04;6.00;;;5.40;;
4650;SDS011;2338;49.602;8.722;2023-06-10T11:35:49;6.27;;;4.90;;
4650;SDS011;2338;49.602;8.722;2023-06-10T11:38:36;5.80;;;5.20;;
4650;SDS011;2338;49.602;8.722;2023-06-10T11:41:22;7.40;;;4.50;;
4650;SDS011;2338;49.602;8.722;2023-06-10T11:44:09;5.90;;;5.27;;
4650;SDS011;2338;49.602;8.722;2023-06-10T11:46:56;6.93;;;5.00;;
4650;SDS011;2338;49.602;8.722;2023-06-10T11:49:41;7.13;;;5.70;;
4650;SDS011;2338;49.602;8.722;2023-06-10T11:52:27;16.10;;;5.50;;
4650;SDS011;2338;49.602;8.722;2023-06-10T11:55:14;7.57;;;5.23;;
4650;SDS011;2338;49.602;8.722;2023-06-10T11:58:00;7.77;;;4.53;;
4650;SDS011;2338;49.602;8.722;2023-06-10T12:00:46;7.27;;;4.90;;
4650;SDS011;2338;49.602;8.722;2023-06-10T12:03:35;5.80;;;4.80;;
4650;SDS011;2338;49.602;8.722;2023-06-10T12:06:21;7.33;;;5.47;;
4650;SDS011;2338;49.602;8.722;2023-06-10T12:09:12;6.10;;;4.60;;
4650;SDS011;2338;49.602;8.722;2023-06-10T12:12:00;5.67;;;4.47;;
4650;SDS011;2338;49.602;8.722;2023-06-10T12:14:51;5.80;;;4.63;;
4650;SDS011;2338;49.602;8.722;2023-06-10T12:17:38;6.80;;;4.90;;
4650;SDS011;2338;49.602;8.722;2023-06-10T12:20:24;5.23;;;4.20;;
4650;SDS011;2338;49.602;8.722;2023-06-10T12:23:12;5.43;;;4.53;;
4650;SDS011;2338;49.602;8.722;2023-06-10T12:25:57;6.47;;;3.80;;
4650;SDS011;2338;49.602;8.722;2023-06-10T12:28:50;5.17;;;4.27;;
4650;SDS011;2338;49.602;8.722;2023-06-10T12:34:37;8.23;;;4.70;;
4650;SDS011;2338;49.602;8.722;2023-06-10T12:37:24;5.67;;;4.33;;
4650;SDS011;2338;49.602;8.722;2023-06-10T12:40:09;7.93;;;4.67;;
4650;SDS011;2338;49.602;8.722;2023-06-10T12:42:55;5.70;;;3.60;;
4650;SDS011;2338;49.602;8.722;2023-06-10T12:45:42;4.43;;;3.77;;
4650;SDS011;2338;49.602;8.722;2023-06-10T12:48:28;5.60;;;4.10;;
4650;SDS011;2338;49.602;8.722;2023-06-10T12:51:14;6.07;;;4.30;;
4650;SDS011;2338;49.602;8.722;2023-06-10T12:53:59;7.70;;;3.73;;
4650;SDS011;2338;49.602;8.722;2023-06-10T12:56:45;7.20;;;4.17;;
4650;SDS011;2338;49.602;8.722;2023-06-10T12:59:31;10.67;;;4.10;;
4650;SDS011;2338;49.602;8.722;2023-06-10T13:02:18;6.83;;;4.10;;
4650;SDS011;2338;49.602;8.722;2023-06-10T13:05:04;4.77;;;4.00;;
4650;SDS011;2338;49.602;8.722;2023-06-10T13:07:50;6.80;;;4.60;;
4650;SDS011;2338;49.602;8.722;2023-06-10T13:10:36;7.60;;;4.47;;
4650;SDS011;2338;49.602;8.722;2023-06-10T13:13:22;8.43;;;6.30;;
4650;SDS011;2338;49.602;8.722;2023-06-10T13:16:08;9.90;;;4.40;;
4650;SDS011;2338;49.602;8.722;2023-06-10T13:18:55;7.60;;;4.27;;
4650;SDS011;2338;49.602;8.722;2023-06-10T13:21:41;7.40;;;4.00;;
4650;SDS011;2338;49.602;8.722;2023-06-10T13:24:26;6.00;;;4.47;;
4650;SDS011;2338;49.602;8.722;2023-06-10T13:27:12;9.13;;;4.90;;
4650;SDS011;2338;49.602;8.722;2023-06-10T13:29:58;6.90;;;4.40;;
4650;SDS011;2338;49.602;8.722;2023-06-10T13:32:43;7.03;;;4.33;;
4650;SDS011;2338;49.602;8.722;2023-06-10T13:35:30;7.33;;;3.93;;
4650;SDS011;2338;49.602;8.722;2023-06-10T13:38:16;7.00;;;4.17;;
4650;SDS011;2338;49.602;8.722;2023-06-10T13:41:01;7.17;;;6.47;;
4650;SDS011;2338;49.602;8.722;2023-06-10T13:43:47;5.00;;;4.03;;
4650;SDS011;2338;49.602;8.722;2023-06-10T13:46:33;6.80;;;4.53;;
4650;SDS011;2338;49.602;8.722;2023-06-10T13:49:18;12.00;;;4.17;;
4650;SDS011;2338;49.602;8.722;2023-06-10T13:52:06;5.30;;;3.70;;
4650;SDS011;2338;49.602;8.722;2023-06-10T13:54:52;5.00;;;3.70;;
4650;SDS011;2338;49.602;8.722;2023-06-10T13:57:38;6.70;;;4.07;;
4650;SDS011;2338;49.602;8.722;2023-06-10T14:00:23;6.83;;;4.60;;
4650;SDS011;2338;49.602;8.722;2023-06-10T14:03:10;5.13;;;4.60;;
4650;SDS011;2338;49.602;8.722;2023-06-10T14:05:56;4.73;;;4.17;;
4650;SDS011;2338;49.602;8.722;2023-06-10T14:08:43;4.67;;;3.90;;
4650;SDS011;2338;49.602;8.722;2023-06-10T14:11:29;6.20;;;4.57;;
4650;SDS011;2338;49.602;8.722;2023-06-10T14:14:15;6.17;;;4.60;;
4650;SDS011;2338;49.602;8.722;2023-06-10T14:17:00;15.70;;;4.67;;
4650;SDS011;2338;49.602;8.722;2023-06-10T14:19:46;5.93;;;4.60;;
4650;SDS011;2338;49.602;8.722;2023-06-10T14:22:32;5.40;;;4.50;;
4650;SDS011;2338;49.602;8.722;2023-06-10T14:25:19;9.40;;;4.00;;
4650;SDS011;2338;49.602;8.722;2023-06-10T14:28:04;8.53;;;3.90;;
4650;SDS011;2338;49.602;8.722;2023-06-10T14:30:50;6.13;;;3.80;;
4650;SDS011;2338;49.602;8.722;2023-06-10T14:33:35;5.40;;;4.17;;
4650;SDS011;2338;49.602;8.722;2023-06-10T14:36:21;5.20;;;4.70;;
4650;SDS011;2338;49.602;8.722;2023-06-10T14:39:06;4.83;;;4.07;;
4650;SDS011;2338;49.602;8.722;2023-06-10T14:41:53;6.23;;;4.60;;
4650;SDS011;2338;49.602;8.722;2023-06-10T14:44:39;5.57;;;4.73;;
4650;SDS011;2338;49.602;8.722;2023-06-10T14:47:24;9.90;;;4.27;;
4650;SDS011;2338;49.602;8.722;2023-06-10T14:50:10;5.77;;;3.80;;
4650;SDS011;2338;49.602;8.722;2023-06-10T14:52:55;6.00;;;4.73;;
4650;SDS011;2338;49.602;8.722;2023-06-10T14:55:41;6.30;;;4.93;;
4650;SDS011;2338;49.602;8.722;2023-06-10T14:58:28;5.10;;;4.57;;
4650;SDS011;2338;49.602;8.722;2023-06-10T15:01:13;5.67;;;4.67;;
4650;SDS011;2338;49.602;8.722;2023-06-10T15:03:59;5.53;;;4.20;;
4650;SDS011;2338;49.602;8.722;2023-06-10T15:06:45;5.27;;;4.30;;
4650;SDS011;2338;49.602;8.722;2023-06-10T15:09:32;6.37;;;4.43;;
4650;SDS011;2338;49.602;8.722;2023-06-10T15:12:17;6.20;;;4.90;;
4650;SDS011;2338;49.602;8.722;2023-06-10T15:15:05;8.33;;;4.50;;
4650;SDS011;2338;49.602;8.722;2023-06-10T15:17:50;5.07;;;4.00;;
4650;SDS011;2338;49.602;8.722;2023-06-10T15:20:36;4.83;;;4.27;;
4650;SDS011;2338;49.602;8.722;2023-06-10T15:23:22;5.87;;;4.30;;
4650;SDS011;2338;49.602;8.722;2023-06-10T15:26:07;7.23;;;4.90;;
4650;SDS011;2338;49.602;8.722;2023-06-10T15:28:53;4.83;;;4.27;;
4650;SDS011;2338;49.602;8.722;2023-06-10T15:31:40;6.10;;;4.00;;
4650;SDS011;2338;49.602;8.722;2023-06-10T15:34:25;9.20;;;4.67;;
4650;SDS011;2338;49.602;8.722;2023-06-10T15:37:11;8.10;;;4.50;;
4650;SDS011;2338;49.602;8.722;2023-06-10T15:39:56;6.43;;;4.60;;
4650;SDS011;2338;49.602;8.722;2023-06-10T15:42:42;6.20;;;5.17;;
4650;SDS011;2338;49.602;8.722;2023-06-10T15:45:27;5.07;;;3.60;;
4650;SDS011;2338;49.602;8.722;2023-06-10T15:48:14;5.43;;;3.80;;
4650;SDS011;2338;49.602;8.722;2023-06-10T15:51:00;6.67;;;4.27;;
4650;SDS011;2338;49.602;8.722;2023-06-10T15:53:46;7.60;;;4.00;;
4650;SDS011;2338;49.602;8.722;2023-06-10T15:56:31;6.80;;;5.10;;
4650;SDS011;2338;49.602;8.722;2023-06-10T15:59:17;5.47;;;4.00;;
4650;SDS011;2338;49.602;8.722;2023-06-10T16:02:03;7.30;;;3.90;;
4650;SDS011;2338;49.602;8.722;2023-06-10T16:04:50;5.27;;;4.03;;
4650;SDS011;2338;49.602;8.722;2023-06-10T16:07:36;5.70;;;4.30;;
4650;SDS011;2338;49.602;8.722;2023-06-10T16:10:21;5.90;;;4.83;;
4650;SDS011;2338;49.602;8.722;2023-06-10T16:13:07;7.93;;;4.63;;
4650;SDS011;2338;49.602;8.722;2023-06-10T16:15:53;7.90;;;4.70;;
4650;SDS011;2338;49.602;8.722;2023-06-10T16:18:39;5.03;;;3.67;;
4650;SDS011;2338;49.602;8.722;2023-06-10T16:21:26;8.50;;;4.50;;
4650;SDS011;2338;49.602;8.722;2023-06-10T16:24:11;5.80;;;4.43;;
4650;SDS011;2338;49.602;8.722;2023-06-10T16:26:57;8.23;;;4.67;;
4650;SDS011;2338;49.602;8.722;2023-06-10T16:29:42;6.40;;;4.70;;
4650;SDS011;2338;49.602;8.722;2023-06-10T16:32:28;5.40;;;4.67;;
4650;SDS011;2338;49.602;8.722;2023-06-10T16:35:14;6.20;;;4.70;;
4650;SDS011;2338;49.602;8.722;2023-06-10T16:38:01;8.53;;;4.60;;
4650;SDS011;2338;49.602;8.722;2023-06-10T16:40:47;6.73;;;4.27;;
4650;SDS011;2338;49.602;8.722;2023-06-10T16:43:32;6.40;;;3.90;;
4650;SDS011;2338;49.602;8.722;2023-06-10T16:46:18;5.73;;;4.60;;
4650;SDS011;2338;49.602;8.722;2023-06-10T16:49:05;7.43;;;4.70;;
4650;SDS011;2338;49.602;8.722;2023-06-10T16:51:50;7.03;;;4.90;;
4650;SDS011;2338;49.602;8.722;2023-06-10T16:54:37;5.80;;;4.10;;
4650;SDS011;2338;49.602;8.722;2023-06-10T16:57:23;6.80;;;4.60;;
4650;SDS011;2338;49.602;8.722;2023-06-10T17:00:09;6.07;;;4.83;;
4650;SDS011;2338;49.602;8.722;2023-06-10T17:02:55;6.60;;;4.77;;
4650;SDS011;2338;49.602;8.722;2023-06-10T17:05:41;6.27;;;5.27;;
4650;SDS011;2338;49.602;8.722;2023-06-10T17:08:26;9.47;;;4.70;;
4650;SDS011;2338;49.602;8.722;2023-06-10T17:11:13;7.97;;;5.07;;
4650;SDS011;2338;49.602;8.722;2023-06-10T17:13:59;10.43;;;4.87;;